Time;durP1;ratioP1;P1;durP2;ratioP2;P2;SDS_P1;SDS_P2;PMS_P1;PMS_P2;Temp;Humidity;BMP_temperature;BMP_pressure;BME280_temperature;BME280_humidity;BME280_pressure;Samples;Min_cycle;Max_cycle;Signal;HPM_P1;HPM_P2
2022/12/15 00:40:36;;;;;;;10.05;3.25;;;-3275.00;94.20;;;;;;5057803;28;20098;-77
2022/12/15 00:43:02;;;;;;;13.48;4.95;;;-3274.90;94.00;;;;;;5071956;28;20044;-77
2022/12/15 00:48:12;;;;;;;19.15;7.80;;;-3274.80;93.90;;;;;;5072101;28;20132;-76
2022/12/15 00:50:53;;;;;;;43.58;23.45;;;-3274.80;93.90;;;;;;5071772;28;20123;-77
2022/12/15 01:20:54;;;;;;;;;;;-3274.80;93.70;;;;;;5072671;28;20036;-77
2022/12/15 01:23:20;;;;;;;12.38;4.93;;;-3274.80;93.70;;;;;;5075760;28;19917;-77
2022/12/15 01:25:45;;;;;;;9.35;4.15;;;-3274.70;93.60;;;;;;5042489;28;20113;-76
2022/12/15 01:28:11;;;;;;;9.52;2.67;;;-3274.70;93.60;;;;;;5075774;28;20044;-77
2022/12/15 01:30:37;;;;;;;6.65;1.30;;;-3274.70;93.60;;;;;;5042188;28;20059;-77
2022/12/15 01:33:03;;;;;;;5.82;1.80;;;-3274.80;93.70;;;;;;5075628;28;20040;-77
2022/12/15 01:35:28;;;;;;;5.15;1.60;;;-3274.80;93.70;;;;;;5075431;28;20166;-76
2022/12/15 01:37:54;;;;;;;8.55;2.92;;;-3274.90;93.70;;;;;;5075406;28;20040;-77
2022/12/15 01:43:13;;;;;;;8.43;2.53;;;-3275.00;93.80;;;;;;5075414;28;20040;-77
2022/12/15 01:45:57;;;;;;;4.90;1.20;;;-3275.10;93.70;;;;;;5075304;28;20052;-77
2022/12/15 01:48:28;;;;;;;5.40;1.00;;;-3275.20;93.70;;;;;;5075249;28;20553;-77
2022/12/15 01:51:12;;;;;;;5.75;1.00;;;-3275.20;93.50;;;;;;5075057;28;20079;-76
2022/12/15 01:53:58;;;;;;;6.60;1.20;;;-3275.30;93.40;;;;;;5075558;28;20039;-77
2022/12/15 01:56:26;;;;;;;3.80;1.25;;;-3275.50;93.40;;;;;;5075132;28;20041;-77
2022/12/15 01:58:55;;;;;;;4.07;1.05;;;-3275.80;93.20;;;;;;5074842;28;20119;-76
2022/12/15 02:01:21;;;;;;;6.00;2.33;;;-3276.00;93.10;;;;;;5074905;28;20044;-77
2022/12/15 02:03:47;;;;;;;14.07;4.47;;;-3276.00;93.00;;;;;;5058163;28;20052;-76
2022/12/15 02:06:13;;;;;;;10.35;3.33;;;-3276.00;92.90;;;;;;5058180;28;20040;-77
2022/12/15 02:08:43;;;;;;;5.28;1.58;;;-3275.90;92.90;;;;;;5075059;28;20040;-77
2022/12/15 02:11:46;;;;;;;10.63;2.97;;;-3275.80;92.60;;;;;;5074726;28;20045;-77
2022/12/15 02:14:22;;;;;;;15.93;7.43;;;-3275.60;92.50;;;;;;5074707;28;20040;-77
2022/12/15 02:16:54;;;;;;;12.38;7.10;;;-3275.40;92.30;;;;;;5074990;28;20392;-77
2022/12/15 02:20:00;;;;;;;19.40;8.05;;;-3275.30;92.50;;;;;;5074654;28;20123;-77
2022/12/15 02:23:02;;;;;;;11.73;3.10;;;-3275.30;92.60;;;;;;5074592;28;20052;-77
2022/12/15 02:25:33;;;;;;;7.63;1.98;;;-3275.20;92.70;;;;;;5074670;28;20040;-77
2022/12/15 02:28:34;;;;;;;5.82;1.40;;;-3275.10;92.70;;;;;;5074713;28;20049;-77
2022/12/15 02:31:49;;;;;;;5.78;1.42;;;-3275.10;92.80;;;;;;5066244;28;20049;-77
2022/12/15 02:34:54;;;;;;;6.65;2.67;;;-3275.00;92.90;;;;;;5054657;28;20044;-76
2022/12/15 02:37:34;;;;;;;5.03;1.83;;;-3275.00;92.90;;;;;;5058026;28;20509;-76
2022/12/15 02:40:00;;;;;;;3.17;1.13;;;-3274.90;92.90;;;;;;5074484;28;20406;-76
2022/12/15 02:42:28;;;;;;;4.07;1.30;;;-3274.90;93.10;;;;;;5074579;28;20514;-77
2022/12/15 02:45:01;;;;;;;6.13;1.23;;;-3275.00;93.20;;;;;;5058016;28;20405;-77
2022/12/15 02:47:31;;;;;;;6.35;1.10;;;-3275.10;93.10;;;;;;5074137;28;20055;-77
2022/12/15 02:50:22;;;;;;;8.48;1.77;;;-3275.20;93.40;;;;;;5074058;28;20045;-77
2022/12/15 02:52:47;;;;;;;5.22;1.08;;;-3275.30;93.10;;;;;;5074031;28;20048;-77
2022/12/15 02:55:32;;;;;;;7.03;1.20;;;-3275.30;93.10;;;;;;5057316;28;20037;-77
2022/12/15 02:57:57;;;;;;;8.35;1.80;;;-3275.40;93.10;;;;;;5057332;28;20083;-77
2022/12/15 03:00:23;;;;;;;21.30;5.50;;;-3275.50;93.30;;;;;;5057221;28;20085;-77
2022/12/15 03:02:54;;;;;;;14.00;5.35;;;-3275.50;93.20;;;;;;5057400;28;20052;-77
2022/12/15 03:05:21;;;;;;;21.52;7.25;;;-3275.60;93.10;;;;;;5073816;28;20040;-77
2022/12/15 03:07:53;;;;;;;10.85;3.67;;;-3275.60;93.00;;;;;;5057102;28;20127;-77
2022/12/15 03:10:22;;;;;;;10.75;2.88;;;-3275.60;93.00;;;;;;5073707;28;20054;-77
2022/12/15 03:12:49;;;;;;;6.50;3.15;;;-3275.60;93.10;;;;;;5073612;28;20174;-77
2022/12/15 03:15:15;;;;;;;8.07;3.25;;;-3275.50;93.10;;;;;;5073634;28;20051;-77
2022/12/15 03:17:41;;;;;;;4.43;1.70;;;-3275.50;93.20;;;;;;5057129;28;20107;-77
2022/12/15 03:20:07;;;;;;;7.00;1.58;;;-3275.50;93.20;;;;;;5073555;28;20522;-77
2022/12/15 03:22:34;;;;;;;6.40;1.70;;;-3275.40;93.30;;;;;;5073730;28;20056;-77
2022/12/15 03:25:00;;;;;;;8.48;1.33;;;-3275.40;93.30;;;;;;5057188;28;20507;-76
2022/12/15 03:27:25;;;;;;;6.00;1.10;;;-3275.30;93.30;;;;;;5073368;28;20131;-77
2022/12/15 03:29:51;;;;;;;7.10;2.58;;;-3275.30;93.40;;;;;;5073558;28;20044;-76
2022/12/15 03:32:17;;;;;;;5.22;1.15;;;-3275.30;93.50;;;;;;5056580;28;20400;-77
2022/12/15 03:34:42;;;;;;;5.85;1.10;;;-3275.30;93.60;;;;;;5040057;28;20184;-77
2022/12/15 03:37:08;;;;;;;5.75;1.70;;;-3275.30;93.40;;;;;;5073471;28;20032;-77
2022/12/15 03:39:34;;;;;;;8.70;1.48;;;-3275.30;93.50;;;;;;5073436;28;20496;-77
2022/12/15 03:41:59;;;;;;;5.60;1.20;;;-3275.30;93.60;;;;;;5056481;28;20040;-77
2022/12/15 03:44:25;;;;;;;5.18;1.70;;;-3275.20;93.50;;;;;;5072616;28;20045;-77
2022/12/15 03:46:51;;;;;;;7.05;1.75;;;-3275.20;93.60;;;;;;5056463;28;20080;-77
2022/12/15 03:49:17;;;;;;;7.07;2.47;;;-3275.20;93.60;;;;;;5056278;28;20197;-77
2022/12/15 03:51:43;;;;;;;4.38;1.67;;;-3275.10;93.60;;;;;;5073087;28;20045;-77
2022/12/15 03:54:13;;;;;;;5.40;1.42;;;-3275.10;93.70;;;;;;5072909;28;20044;-76
2022/12/15 03:56:39;;;;;;;3.13;1.80;;;-3275.10;93.80;;;;;;5056149;28;20048;-77
2022/12/15 03:59:05;;;;;;;5.93;1.95;;;-3275.00;93.80;;;;;;5073045;28;20385;-77
2022/12/15 04:01:32;;;;;;;6.95;1.70;;;-3275.10;93.70;;;;;;5072691;28;20621;-77
2022/12/15 04:03:59;;;;;;;6.60;1.73;;;-3275.00;93.90;;;;;;5055917;28;20546;-77
2022/12/15 04:06:25;;;;;;;4.80;1.88;;;-3275.00;93.70;;;;;;5072642;28;20646;-76
2022/12/15 04:08:51;;;;;;;6.28;2.22;;;-3275.10;93.80;;;;;;5072616;28;20045;-76
2022/12/15 04:11:18;;;;;;;5.95;1.98;;;-3275.10;93.80;;;;;;5056321;28;20090;-77
2022/12/15 04:13:43;;;;;;;5.57;1.80;;;-3275.20;94.00;;;;;;5056030;28;20072;-77
2022/12/15 04:16:09;;;;;;;6.25;1.98;;;-3275.30;93.60;;;;;;5072533;28;20079;-77
2022/12/15 04:18:35;;;;;;;5.10;2.25;;;-3275.30;93.80;;;;;;5072632;28;20043;-77
2022/12/15 04:21:01;;;;;;;3.72;1.90;;;-3275.30;93.70;;;;;;5072231;28;20043;-77
2022/12/15 04:23:26;;;;;;;15.20;3.45;;;-3275.30;93.80;;;;;;5072617;28;20088;-76
2022/12/15 05:32:00;;;;;;;13.05;2.63;;;-3275.80;93.60;;;;;;5071421;28;20044;-77
2022/12/15 05:34:28;;;;;;;10.18;3.13;;;-3275.80;93.80;;;;;;5054597;28;20029;-77
2022/12/15 05:36:55;;;;;;;8.60;2.78;;;-3275.80;93.90;;;;;;5071401;28;20106;-77
2022/12/15 05:39:22;;;;;;;9.73;4.00;;;-3275.90;93.90;;;;;;5071393;28;20047;-76
2022/12/15 05:41:52;;;;;;;15.13;4.22;;;-3276.00;93.60;;;;;;5054782;28;20041;-76
2022/12/15 05:44:18;;;;;;;9.15;3.25;;;-3276.00;93.80;;;;;;5071523;28;20048;-76
2022/12/15 05:46:44;;;;;;;11.27;3.15;;;-3276.10;93.90;;;;;;5071559;28;20040;-77
2022/12/15 05:49:15;;;;;;;9.35;2.10;;;-3276.20;93.90;;;;;;5054420;28;20045;-75
2022/12/15 05:51:42;;;;;;;6.38;1.88;;;-3276.30;94.10;;;;;;5054493;28;20037;-75
2022/12/15 05:54:09;;;;;;;6.32;1.70;;;-3276.40;94.00;;;;;;5054824;28;20490;-75
2022/12/15 05:56:36;;;;;;;9.70;2.42;;;-3276.50;93.70;;;;;;5054483;28;20125;-75
2022/12/15 05:59:03;;;;;;;4.85;2.30;;;-3276.50;93.60;;;;;;5071265;28;20032;-76
2022/12/15 06:01:30;;;;;;;8.43;2.45;;;-3276.50;93.60;;;;;;5071147;28;20049;-75
2022/12/15 06:03:57;;;;;;;7.25;2.20;;;-3276.50;93.60;;;;;;5070998;28;20056;-75
2022/12/15 06:06:23;;;;;;;6.78;2.50;;;-3276.60;93.40;;;;;;5069636;28;20106;-75
2022/12/15 06:08:49;;;;;;;8.40;2.97;;;-3276.50;93.40;;;;;;5074004;28;20056;-75
2022/12/15 06:11:16;;;;;;;8.43;2.50;;;-3276.50;93.60;;;;;;5074558;28;20044;-75
2022/12/15 06:13:42;;;;;;;5.15;2.40;;;-3276.50;93.50;;;;;;5074591;28;20043;-76
2022/12/15 06:16:14;;;;;;;6.35;2.45;;;-3276.50;93.80;;;;;;5074656;28;20083;-76
2022/12/15 06:18:45;;;;;;;6.53;2.08;;;-3276.60;93.60;;;;;;5058047;28;20098;-75
2022/12/15 06:21:14;;;;;;;9.35;2.05;;;-3276.50;93.90;;;;;;5057734;28;20048;-76
2022/12/15 06:23:40;;;;;;;9.45;2.40;;;-3276.50;93.60;;;;;;5074719;28;20032;-75
2022/12/15 06:26:10;;;;;;;6.88;1.83;;;-3276.50;93.80;;;;;;5074783;28;20084;-75
2022/12/15 06:28:36;;;;;;;7.90;1.90;;;-3276.50;93.80;;;;;;5074441;28;20489;-76
2022/12/15 06:31:04;;;;;;;5.57;1.70;;;-3276.50;93.70;;;;;;5074213;28;20050;-76
2022/12/15 06:33:30;;;;;;;6.97;1.77;;;-3276.40;93.80;;;;;;5074323;28;20047;-75
2022/12/15 06:35:56;;;;;;;9.43;2.17;;;-3276.40;93.70;;;;;;5074630;28;20032;-75
2022/12/15 06:38:22;;;;;;;9.70;1.80;;;-3276.40;93.70;;;;;;5074571;28;20388;-75
2022/12/15 06:40:58;;;;;;;8.52;2.05;;;-3276.30;93.90;;;;;;5040990;28;20058;-75
2022/12/15 06:43:28;;;;;;;7.25;2.45;;;-3276.30;94.00;;;;;;5074009;28;20093;-75
2022/12/15 06:45:54;;;;;;;9.57;2.15;;;-3276.30;94.00;;;;;;5073949;28;20053;-75
2022/12/15 06:48:21;;;;;;;9.75;1.75;;;-3276.40;94.30;;;;;;5057381;28;20039;-76
2022/12/15 06:50:47;;;;;;;6.82;1.60;;;-3276.50;94.70;;;;;;5074170;28;20404;-75
2022/12/15 06:53:14;;;;;;;9.95;1.83;;;-3276.50;94.50;;;;;;5057299;28;20070;-75
2022/12/15 06:55:40;;;;;;;7.40;1.83;;;-3276.60;94.50;;;;;;5073969;28;20048;-75
2022/12/15 06:58:06;;;;;;;7.28;2.13;;;-3276.60;94.20;;;;;;5073872;28;20041;-75
2022/12/15 07:00:35;;;;;;;13.15;2.38;;;-3276.70;94.00;;;;;;5073788;28;20090;-76
2022/12/15 07:03:02;;;;;;;8.52;2.05;;;-3276.70;94.30;;;;;;5073749;28;20088;-76
2022/12/15 07:05:27;;;;;;;5.95;1.70;;;-3276.70;94.30;;;;;;5074011;28;20121;-76
2022/12/15 07:07:53;;;;;;;4.63;1.92;;;-3276.70;94.40;;;;;;5073740;28;20484;-74
2022/12/15 07:10:19;;;;;;;5.68;1.75;;;0.00;94.50;;;;;;5073690;28;20079;-75
2022/12/15 07:12:44;;;;;;;9.35;2.97;;;0.00;94.00;;;;;;5073615;28;20044;-76
2022/12/15 07:15:10;;;;;;;10.07;3.25;;;0.10;94.00;;;;;;5073687;28;20040;-76
2022/12/15 07:17:36;;;;;;;12.45;2.08;;;0.10;93.80;;;;;;5040679;28;20040;-76
2022/12/15 07:20:04;;;;;;;5.75;1.98;;;0.10;93.80;;;;;;5056091;28;20033;-77
2022/12/15 07:22:30;;;;;;;6.13;2.10;;;0.10;94.00;;;;;;5073448;28;20057;-76
2022/12/15 07:24:56;;;;;;;6.93;2.00;;;0.10;93.90;;;;;;5057255;28;20114;-76
2022/12/15 07:27:22;;;;;;;8.55;1.85;;;0.10;93.90;;;;;;5073401;28;20048;-76
2022/12/15 07:29:47;;;;;;;7.72;2.40;;;0.10;93.80;;;;;;5040027;28;20128;-76
2022/12/15 07:32:14;;;;;;;9.55;3.38;;;0.10;93.80;;;;;;5073080;28;20078;-76
2022/12/15 07:34:40;;;;;;;8.23;2.20;;;0.10;93.70;;;;;;5056409;28;20044;-75
2022/12/15 07:37:06;;;;;;;9.65;2.92;;;0.10;93.80;;;;;;5073061;28;20047;-77
2022/12/15 07:39:31;;;;;;;6.93;3.38;;;0.10;93.80;;;;;;5072432;28;20032;-76
2022/12/15 07:41:57;;;;;;;9.25;2.47;;;0.10;93.80;;;;;;5055865;28;20237;-76
2022/12/15 07:44:23;;;;;;;7.97;2.42;;;0.10;93.70;;;;;;5072619;28;20044;-75
2022/12/15 07:46:49;;;;;;;5.43;2.10;;;0.10;93.80;;;;;;5055715;28;20088;-75
2022/12/15 07:49:16;;;;;;;7.03;2.90;;;0.10;93.90;;;;;;5056114;28;20040;-76
2022/12/15 07:51:42;;;;;;;10.60;2.80;;;0.20;94.00;;;;;;5056450;28;20092;-75
2022/12/15 07:54:11;;;;;;;6.15;2.13;;;0.20;94.10;;;;;;5072950;28;20044;-75
2022/12/15 07:56:38;;;;;;;5.43;1.77;;;0.20;93.90;;;;;;5073045;28;20040;-75
2022/12/15 07:59:05;;;;;;;7.43;2.20;;;0.20;94.00;;;;;;5039394;28;20036;-77
2022/12/15 08:01:31;;;;;;;9.65;1.90;;;0.20;94.20;;;;;;5072607;28;20051;-76
2022/12/15 08:03:56;;;;;;;8.15;2.53;;;0.20;94.00;;;;;;5055919;28;20594;-77
2022/12/15 08:06:22;;;;;;;8.02;2.63;;;0.20;93.90;;;;;;5072586;28;20050;-77
2022/12/15 08:08:49;;;;;;;7.75;3.08;;;0.20;93.90;;;;;;5056115;28;20091;-77
2022/12/15 08:11:15;;;;;;;11.50;2.67;;;0.20;93.90;;;;;;5072455;28;20135;-76
2022/12/15 08:13:42;;;;;;;7.75;2.63;;;0.20;93.90;;;;;;5072592;28;20472;-77
2022/12/15 08:16:08;;;;;;;6.10;2.60;;;0.20;93.90;;;;;;5072348;28;20032;-76
2022/12/15 08:18:34;;;;;;;8.75;2.78;;;0.20;93.90;;;;;;5072314;28;20079;-77
2022/12/15 08:21:05;;;;;;;8.82;2.90;;;0.20;93.90;;;;;;5072160;28;20072;-77
2022/12/15 08:23:31;;;;;;;7.57;3.75;;;0.10;93.80;;;;;;5055945;28;20036;-77
2022/12/15 08:26:11;;;;;;;10.20;3.50;;;0.10;93.90;;;;;;5055677;28;20472;-77
2022/12/15 08:28:39;;;;;;;7.68;3.28;;;0.10;93.90;;;;;;5072424;28;20412;-77
2022/12/15 08:31:07;;;;;;;10.35;3.78;;;0.10;93.90;;;;;;5072066;28;20079;-76
2022/12/15 08:33:34;;;;;;;7.18;3.75;;;0.10;94.00;;;;;;5055438;28;20484;-77
2022/12/15 08:36:01;;;;;;;7.75;4.13;;;0.10;94.10;;;;;;5055778;28;20514;-77
2022/12/15 08:38:28;;;;;;;9.13;4.10;;;0.10;94.10;;;;;;5072109;28;20068;-77
2022/12/15 08:40:55;;;;;;;10.48;4.22;;;0.20;94.10;;;;;;5071930;28;20116;-77
2022/12/15 08:43:21;;;;;;;10.13;4.13;;;0.20;93.90;;;;;;5055232;28;20036;-77
2022/12/15 08:45:47;;;;;;;7.88;3.67;;;0.30;94.00;;;;;;5071972;28;20041;-77
2022/12/15 08:48:13;;;;;;;8.70;3.65;;;0.40;94.10;;;;;;5055727;28;20068;-78
2022/12/15 08:50:44;;;;;;;9.45;3.67;;;0.50;93.90;;;;;;5055229;28;20079;-76
2022/12/15 08:53:10;;;;;;;5.65;3.17;;;0.50;93.80;;;;;;5071767;28;20041;-77
2022/12/15 08:55:36;;;;;;;7.60;3.15;;;0.60;94.00;;;;;;5071735;28;20040;-77
2022/12/15 08:58:02;;;;;;;6.38;3.03;;;0.60;94.20;;;;;;5071842;28;20042;-78
2022/12/15 09:00:28;;;;;;;10.60;2.55;;;0.60;93.90;;;;;;5071674;28;20045;-77
2022/12/15 09:02:53;;;;;;;10.27;3.85;;;0.60;93.70;;;;;;5071568;28;20060;-77
2022/12/15 09:05:19;;;;;;;6.95;3.38;;;0.70;93.70;;;;;;5038675;28;20047;-78
2022/12/15 09:07:45;;;;;;;7.45;3.53;;;0.70;93.90;;;;;;5054924;28;20400;-77
2022/12/15 09:10:10;;;;;;;12.10;3.35;;;0.80;93.80;;;;;;5071535;28;20040;-76
2022/12/15 09:12:36;;;;;;;7.25;2.58;;;0.80;93.60;;;;;;5071629;28;20150;-77
2022/12/15 09:15:02;;;;;;;10.80;2.78;;;0.90;93.50;;;;;;5071849;28;20489;-76
2022/12/15 09:17:27;;;;;;;15.90;4.00;;;1.00;93.40;;;;;;5071822;28;20394;-76
2022/12/15 09:19:53;;;;;;;10.57;2.70;;;1.10;93.50;;;;;;5071706;28;20473;-75
2022/12/15 09:22:19;;;;;;;11.23;3.50;;;1.30;94.10;;;;;;5055069;28;20118;-76
2022/12/15 09:24:45;;;;;;;8.65;2.75;;;1.40;93.70;;;;;;5071555;28;20043;-75
2022/12/15 09:27:11;;;;;;;9.60;2.85;;;1.40;93.60;;;;;;5054783;28;20508;-76
2022/12/15 09:29:36;;;;;;;15.73;2.80;;;1.50;93.50;;;;;;5054766;28;20078;-76
2022/12/15 09:32:02;;;;;;;8.65;2.38;;;1.60;93.40;;;;;;5071328;28;20048;-76
2022/12/15 09:34:28;;;;;;;11.25;3.80;;;1.60;93.30;;;;;;5054895;28;20051;-77
2022/12/15 09:36:54;;;;;;;7.90;2.83;;;1.70;93.40;;;;;;5071394;28;20475;-78
2022/12/15 09:39:20;;;;;;;13.15;5.47;;;1.70;93.40;;;;;;5054715;28;20032;-77
2022/12/15 09:41:58;;;;;;;7.80;2.75;;;1.80;93.30;;;;;;5022449;28;20040;-78
2022/12/15 09:44:27;;;;;;;17.60;3.58;;;1.80;93.20;;;;;;5075626;28;20029;-77
2022/12/15 09:47:15;;;;;;;10.48;3.50;;;1.80;93.20;;;;;;5058602;28;20040;-77
2022/12/15 09:49:54;;;;;;;8.80;3.38;;;1.80;93.20;;;;;;5058540;28;20492;-78
2022/12/15 09:52:42;;;;;;;14.55;3.08;;;1.80;93.20;;;;;;5075194;28;20044;-79
2022/12/15 09:55:19;;;;;;;8.07;2.35;;;1.80;93.10;;;;;;5075155;28;20124;-78
2022/12/15 09:58:17;;;;;;;12.05;3.67;;;1.80;93.00;;;;;;5058489;28;20040;-79
2022/12/15 10:00:57;;;;;;;10.02;3.15;;;1.90;93.00;;;;;;5070158;28;20098;-79
2022/12/15 10:03:38;;;;;;;7.53;3.25;;;1.80;93.00;;;;;;5074830;28;20053;-78
2022/12/15 10:06:10;;;;;;;12.50;4.35;;;1.80;92.90;;;;;;5074930;28;20041;-77
2022/12/15 10:09:01;;;;;;;8.18;3.40;;;1.90;92.90;;;;;;5058191;28;20123;-79
2022/12/15 10:11:35;;;;;;;13.40;3.30;;;1.90;92.70;;;;;;5075137;28;20397;-79
2022/12/15 10:14:39;;;;;;;9.52;3.33;;;1.90;92.80;;;;;;5074868;28;20553;-78
2022/12/15 10:17:38;;;;;;;7.20;2.90;;;2.00;92.80;;;;;;5074637;28;20493;-80
2022/12/15 10:20:20;;;;;;;6.05;3.17;;;2.10;92.80;;;;;;5057946;28;20036;-80
2022/12/15 10:22:46;;;;;;;8.00;2.90;;;2.10;92.80;;;;;;5058049;28;20047;-80
2022/12/15 10:25:22;;;;;;;10.38;2.65;;;2.10;92.60;;;;;;5058207;28;20036;-79
2022/12/15 10:28:11;;;;;;;9.50;3.35;;;2.10;92.60;;;;;;5074611;28;20047;-78
2022/12/15 10:31:01;;;;;;;12.30;2.88;;;2.20;92.40;;;;;;5074460;28;20127;-79
2022/12/15 10:33:33;;;;;;;7.45;2.63;;;2.20;92.30;;;;;;5074551;28;20041;-78
2022/12/15 10:35:59;;;;;;;9.60;3.30;;;2.30;92.20;;;;;;5074666;28;20522;-81
2022/12/15 10:38:39;;;;;;;8.38;3.13;;;2.30;92.20;;;;;;5041156;28;20078;-81
2022/12/15 10:41:19;;;;;;;6.53;2.33;;;2.30;92.00;;;;;;5074318;28;20178;-82
2022/12/15 10:43:50;;;;;;;10.20;2.40;;;2.40;91.80;;;;;;5074291;28;20085;-81
2022/12/15 10:46:27;;;;;;;6.50;2.33;;;2.40;91.60;;;;;;5074451;28;20090;-79
2022/12/15 10:48:59;;;;;;;10.25;2.65;;;2.50;91.30;;;;;;5074142;28;20515;-82
2022/12/15 10:51:41;;;;;;;9.35;2.17;;;2.60;90.40;;;;;;5074008;28;20041;-83
2022/12/15 10:54:14;;;;;;;8.73;2.75;;;2.80;91.20;;;;;;5056232;28;20041;-80
2022/12/15 10:56:56;;;;;;;11.25;2.05;;;2.90;91.00;;;;;;5074228;28;20094;-82
2022/12/15 10:59:21;;;;;;;8.70;2.72;;;3.00;90.40;;;;;;5073965;28;20044;-79
2022/12/15 11:01:48;;;;;;;5.57;2.75;;;3.10;90.60;;;;;;5074042;28;20059;-83
2022/12/15 11:04:53;;;;;;;7.43;2.13;;;3.10;90.10;;;;;;5074093;28;20040;-80
2022/12/15 11:07:19;;;;;;;5.88;1.90;;;3.20;89.50;;;;;;5045026;28;20484;-82
2022/12/15 11:09:47;;;;;;;14.10;2.58;;;3.30;88.80;;;;;;5074021;28;20102;-80
2022/12/15 11:15:22;;;;;;;4.68;1.58;;;3.50;87.70;;;;;;5073835;28;20050;-83
2022/12/15 11:17:58;;;;;;;8.95;3.08;;;3.60;87.80;;;;;;5073554;28;20102;-80
2022/12/15 11:20:36;;;;;;;7.95;1.67;;;3.70;87.00;;;;;;5073543;28;20075;-80
2022/12/15 11:23:12;;;;;;;9.07;3.58;;;3.80;85.80;;;;;;5056871;28;20075;-82
2022/12/15 11:25:43;;;;;;;13.82;5.07;;;4.00;86.80;;;;;;5057100;28;20400;-80
2022/12/15 11:28:15;;;;;;;8.68;2.10;;;4.10;86.40;;;;;;5056940;28;20097;-80
2022/12/15 11:30:52;;;;;;;7.95;1.77;;;4.10;86.10;;;;;;5073401;28;20087;-79
2022/12/15 11:33:18;;;;;;;7.35;2.65;;;4.30;86.80;;;;;;5056705;28;20119;-81
2022/12/15 11:36:16;;;;;;;6.85;2.58;;;4.30;85.50;;;;;;5056996;28;20040;-79
2022/12/15 11:38:44;;;;;;;7.05;2.10;;;4.50;86.10;;;;;;5056873;28;20457;-80
2022/12/15 11:41:33;;;;;;;11.38;2.47;;;4.60;85.70;;;;;;5073071;28;20036;-82
2022/12/15 11:44:04;;;;;;;10.60;3.00;;;4.60;85.20;;;;;;5073131;28;20131;-80
2022/12/15 11:46:40;;;;;;;6.60;2.63;;;4.80;85.70;;;;;;5056428;28;20032;-81
2022/12/15 11:49:45;;;;;;;8.05;2.17;;;4.80;84.80;;;;;;5073000;28;20040;-79
2022/12/15 11:52:34;;;;;;;10.88;4.07;;;4.90;84.50;;;;;;5056285;28;20037;-79
2022/12/15 11:55:15;;;;;;;10.93;3.90;;;4.90;84.00;;;;;;5063149;28;20128;-80
2022/12/15 11:57:57;;;;;;;14.27;4.57;;;5.00;82.00;;;;;;5056133;28;20047;-80
2022/12/15 12:00:23;;;;;;;8.02;2.85;;;5.10;83.00;;;;;;5072670;28;20124;-81
2022/12/15 12:03:07;;;;;;;7.57;2.28;;;5.10;83.30;;;;;;5072627;28;20052;-81
2022/12/15 12:05:50;;;;;;;11.35;2.10;;;5.30;82.70;;;;;;5055664;28;20045;-80
2022/12/15 12:08:23;;;;;;;7.90;2.40;;;5.40;82.60;;;;;;5072877;28;20045;-79
2022/12/15 12:11:04;;;;;;;8.10;2.53;;;5.40;81.90;;;;;;5072524;28;20507;-80
2022/12/15 12:13:34;;;;;;;6.88;2.17;;;5.50;82.10;;;;;;5072830;28;20287;-80
2022/12/15 12:16:42;;;;;;;7.53;2.20;;;5.60;82.20;;;;;;5072455;28;20048;-80
2022/12/15 12:19:40;;;;;;;6.22;1.75;;;5.80;81.10;;;;;;5072697;28;20415;-79
2022/12/15 12:22:19;;;;;;;11.57;4.03;;;5.70;81.20;;;;;;5067933;28;20400;-80
2022/12/15 12:25:03;;;;;;;8.65;2.28;;;5.80;80.40;;;;;;5055737;28;20484;-79
2022/12/15 12:27:43;;;;;;;8.02;1.98;;;5.70;81.30;;;;;;5072237;28;20044;-80
2022/12/15 12:30:14;;;;;;;5.97;3.08;;;5.80;81.50;;;;;;5055455;28;20092;-81
2022/12/15 12:32:52;;;;;;;7.53;2.50;;;5.70;81.00;;;;;;5072074;28;20484;-79
2022/12/15 12:35:31;;;;;;;8.90;2.88;;;5.60;80.60;;;;;;5055731;28;20396;-82
2022/12/15 12:38:02;;;;;;;9.07;2.90;;;5.60;81.00;;;;;;5072101;28;20036;-81
2022/12/15 12:40:39;;;;;;;7.88;2.50;;;5.30;81.30;;;;;;5071917;28;20068;-80
2022/12/15 12:43:06;;;;;;;6.75;3.10;;;5.10;81.50;;;;;;5072004;28;20127;-79
2022/12/15 12:45:56;;;;;;;6.38;2.42;;;5.00;82.00;;;;;;5055288;28;20089;-79
2022/12/15 12:48:25;;;;;;;8.43;2.85;;;4.80;82.10;;;;;;5055271;28;20502;-79
2022/12/15 12:50:52;;;;;;;6.05;2.80;;;4.60;82.70;;;;;;5071829;28;20071;-79
2022/12/15 12:53:31;;;;;;;11.32;2.92;;;4.50;83.10;;;;;;5071747;28;20309;-80
2022/12/15 12:55:57;;;;;;;6.55;2.25;;;4.40;83.70;;;;;;5071882;28;20136;-80
2022/12/15 12:58:41;;;;;;;9.50;2.67;;;4.30;84.20;;;;;;5055290;28;20123;-80
2022/12/15 13:01:11;;;;;;;6.20;2.30;;;4.20;84.20;;;;;;5071712;28;20040;-79
2022/12/15 13:03:45;;;;;;;7.90;3.83;;;4.20;84.30;;;;;;5054890;28;20044;-81
2022/12/15 13:06:35;;;;;;;9.43;3.17;;;4.20;85.20;;;;;;5071736;28;20051;-79
2022/12/15 13:09:16;;;;;;;8.20;3.53;;;4.20;85.20;;;;;;5054896;28;20040;-81
2022/12/15 13:11:47;;;;;;;7.78;3.40;;;4.40;85.60;;;;;;5071752;28;20040;-79
2022/12/15 13:14:16;;;;;;;7.90;3.75;;;4.80;84.70;;;;;;5071574;28;20041;-79
2022/12/15 13:16:44;;;;;;;10.75;4.22;;;5.00;83.40;;;;;;5070925;28;20102;-80
2022/12/15 13:19:10;;;;;;;8.27;4.50;;;5.20;83.60;;;;;;5071509;28;20133;-81
2022/12/15 13:21:42;;;;;;;7.80;3.95;;;5.50;83.20;;;;;;5054848;28;20076;-80
2022/12/15 13:24:34;;;;;;;9.75;3.47;;;5.60;82.10;;;;;;5071767;28;20044;-80
2022/12/15 13:27:09;;;;;;;12.13;4.30;;;5.60;81.00;;;;;;5071485;28;20047;-80
2022/12/15 13:29:55;;;;;;;8.73;3.05;;;5.40;81.10;;;;;;5071432;28;20570;-78
2022/12/15 13:32:42;;;;;;;10.32;3.97;;;5.10;81.90;;;;;;5071406;28;20041;-79
2022/12/15 13:35:11;;;;;;;8.65;4.05;;;4.80;82.90;;;;;;5055039;28;20391;-81
2022/12/15 13:37:58;;;;;;;11.05;3.53;;;4.60;83.00;;;;;;5071353;28;20477;-80
2022/12/15 13:40:35;;;;;;;12.82;3.50;;;4.40;83.50;;;;;;5054956;28;20041;-80
2022/12/15 13:43:04;;;;;;;10.50;4.75;;;4.20;84.00;;;;;;5071682;28;20079;-79
2022/12/15 13:45:42;;;;;;;10.02;4.32;;;4.10;84.90;;;;;;5054615;28;20036;-80
2022/12/15 13:48:38;;;;;;;8.13;3.50;;;4.00;85.00;;;;;;5071298;28;20500;-80
2022/12/15 13:51:19;;;;;;;;;;;4.20;85.00;;;;;;5071676;28;20123;-78
2022/12/15 13:53:57;;;;;;;12.45;4.80;;;4.60;84.20;;;;;;5054519;28;19970;-79
2022/12/15 13:56:28;;;;;;;12.38;4.68;;;4.70;83.70;;;;;;5071313;28;20044;-78
2022/12/15 13:59:03;;;;;;;9.15;3.40;;;4.60;83.80;;;;;;5071496;28;20041;-78
2022/12/15 14:01:30;;;;;;;6.63;3.20;;;4.60;83.70;;;;;;5071281;28;20036;-79
2022/12/15 14:04:03;;;;;;;7.03;3.17;;;4.50;83.40;;;;;;5071084;28;20075;-79
2022/12/15 14:06:36;;;;;;;10.40;4.60;;;4.50;83.80;;;;;;5071224;28;20051;-81
2022/12/15 14:09:02;;;;;;;11.85;4.30;;;4.40;84.10;;;;;;5071164;28;20287;-80
2022/12/15 14:11:32;;;;;;;9.60;3.45;;;4.30;85.00;;;;;;5054485;28;20051;-80
2022/12/15 14:13:59;;;;;;;3.92;1.95;;;4.10;86.00;;;;;;5071081;28;20041;-82
2022/12/15 14:16:28;;;;;;;4.75;1.77;;;4.10;86.70;;;;;;5037735;28;20495;-80
2022/12/15 14:19:16;;;;;;;7.25;2.10;;;4.00;87.90;;;;;;5070862;28;20123;-79
2022/12/15 14:21:56;;;;;;;4.13;2.00;;;3.80;88.30;;;;;;5071037;28;20045;-81
2022/12/15 14:24:33;;;;;;;7.18;3.40;;;3.50;89.50;;;;;;5071202;28;20036;-79
2022/12/15 14:26:59;;;;;;;7.03;2.67;;;3.50;90.20;;;;;;5070969;28;20079;-83
2022/12/15 14:29:25;;;;;;;4.30;2.58;;;3.40;89.60;;;;;;5057102;28;20083;-80
2022/12/15 14:31:54;;;;;;;5.07;1.50;;;3.40;90.00;;;;;;5057763;28;20044;-82
2022/12/15 14:34:31;;;;;;;5.45;2.13;;;3.40;90.70;;;;;;5074564;28;20476;-79
2022/12/15 14:37:01;;;;;;;9.77;1.40;;;3.30;90.60;;;;;;5074443;28;20040;-80
2022/12/15 14:39:38;;;;;;;5.03;2.22;;;3.20;90.70;;;;;;5057867;28;20387;-84
2022/12/15 14:42:06;;;;;;;4.80;1.73;;;3.10;91.70;;;;;;5057754;28;20318;-84
2022/12/15 14:44:40;;;;;;;12.15;6.20;;;3.00;92.20;;;;;;5057587;28;20040;-81
2022/12/15 14:47:15;;;;;;;9.48;2.65;;;3.10;93.40;;;;;;5074364;28;20047;-81
2022/12/15 14:49:44;;;;;;;7.88;3.60;;;3.00;92.80;;;;;;5057854;28;20040;-82
2022/12/15 14:52:27;;;;;;;7.60;1.58;;;2.90;92.80;;;;;;5074279;28;20458;-82
2022/12/15 14:54:56;;;;;;;5.97;1.70;;;2.90;92.30;;;;;;5074230;28;20048;-82
2022/12/15 14:57:28;;;;;;;6.35;2.50;;;2.90;92.40;;;;;;5057480;28;20040;-81
2022/12/15 14:59:54;;;;;;;5.55;2.05;;;2.80;92.60;;;;;;5074297;28;20029;-83
2022/12/15 15:02:25;;;;;;;6.70;2.40;;;2.80;92.40;;;;;;5073701;28;20059;-83
2022/12/15 15:04:55;;;;;;;9.20;3.97;;;2.80;93.20;;;;;;5074223;28;20051;-81
2022/12/15 15:07:22;;;;;;;9.68;5.03;;;2.80;92.80;;;;;;5057108;28;20086;-81
2022/12/15 15:09:48;;;;;;;7.00;3.00;;;2.80;93.10;;;;;;5074017;28;20036;-82
2022/12/15 15:12:17;;;;;;;11.32;4.85;;;2.80;93.30;;;;;;5056965;28;20040;-81
2022/12/15 15:15:19;;;;;;;13.98;5.95;;;2.80;92.80;;;;;;5057030;28;20489;-81
2022/12/15 15:17:49;;;;;;;14.27;5.53;;;2.80;93.10;;;;;;5057012;28;20047;-81
2022/12/15 15:20:15;;;;;;;10.35;4.97;;;2.70;93.10;;;;;;5073290;28;20369;-84
2022/12/15 15:22:44;;;;;;;18.77;9.77;;;2.70;93.00;;;;;;5056334;28;20047;-82
2022/12/15 15:25:25;;;;;;;12.75;5.85;;;2.60;93.20;;;;;;5072866;28;20489;-81
2022/12/15 15:27:50;;;;;;;9.05;5.18;;;2.60;93.20;;;;;;5056355;28;20036;-83